Time;durP1;ratioP1;P1;durP2;ratioP2;P2;SDS_P1;SDS_P2;PMS_P1;PMS_P2;Temp;Humidity;BMP_temperature;BMP_pressure;BME280_temperature;BME280_humidity;BME280_pressure;Samples;Min_cycle;Max_cycle;Signal;HPM_P1;HPM_P2
2021/05/24 00:00:39;;;;;;;0.25;0.20;;;;;;;;;;5052821;28;20017;-5
2021/05/24 00:03:05;;;;;;;0.30;0.30;;;;;;;;;;5052607;28;20029;-7
2021/05/24 00:05:32;;;;;;;0.30;0.20;;;;;;;;;;5052588;28;20035;-7
2021/05/24 00:07:57;;;;;;;0.20;0.20;;;;;;;;;;5052934;28;20047;-6
2021/05/24 00:10:24;;;;;;;0.45;0.43;;;;;;;;;;5052542;28;20519;-5
2021/05/24 00:12:51;;;;;;;0.73;0.20;;;;;;;;;;5052456;28;20017;-6
2021/05/24 00:15:18;;;;;;;0.30;0.30;;;;;;;;;;5052762;28;20263;-6
2021/05/24 00:17:43;;;;;;;0.32;0.20;;;;;;;;;;5052428;28;20046;-6
2021/05/24 00:20:09;;;;;;;0.30;0.30;;;;;;;;;;5052386;28;20112;-5
2021/05/24 00:22:34;;;;;;;2.30;0.20;;;;;;;;;;5052356;28;20049;-6
2021/05/24 00:25:00;;;;;;;0.30;0.30;;;;;;;;;;5052663;28;20086;-4
2021/05/24 00:27:25;;;;;;;0.10;0.10;;;;;;;;;;5052228;28;20059;-5
2021/05/24 00:29:51;;;;;;;2.30;0.20;;;;;;;;;;5052370;28;20125;-5
2021/05/24 00:32:16;;;;;;;1.10;0.30;;;;;;;;;;5052569;28;20084;-5
2021/05/24 00:34:42;;;;;;;0.20;0.20;;;;;;;;;;5052554;28;20025;-6
2021/05/24 00:37:07;;;;;;;0.30;0.30;;;;;;;;;;5052397;28;20056;-5
2021/05/24 00:39:32;;;;;;;0.63;0.25;;;;;;;;;;5052525;28;20067;-5
2021/05/24 00:41:58;;;;;;;0.68;0.40;;;;;;;;;;5052177;28;20589;-5
2021/05/24 00:44:25;;;;;;;0.30;0.30;;;;;;;;;;5050879;28;20033;-7
2021/05/24 00:46:50;;;;;;;1.13;0.22;;;;;;;;;;5052124;28;20021;-7
2021/05/24 00:49:16;;;;;;;0.52;0.28;;;;;;;;;;5052217;28;20036;-6
2021/05/24 00:51:41;;;;;;;1.77;0.30;;;;;;;;;;5052123;28;20027;-6
2021/05/24 00:54:07;;;;;;;0.40;0.40;;;;;;;;;;5053631;28;20033;-5
2021/05/24 00:56:32;;;;;;;0.22;0.17;;;;;;;;;;5056133;28;20071;-5
2021/05/24 00:58:58;;;;;;;0.30;0.30;;;;;;;;;;5056085;28;20033;-6
2021/05/24 01:01:23;;;;;;;0.40;0.40;;;;;;;;;;5055970;28;20456;-7
2021/05/24 01:03:49;;;;;;;3.22;0.30;;;;;;;;;;5056251;28;20059;-4
2021/05/24 01:06:14;;;;;;;1.88;0.20;;;;;;;;;;5055943;28;20543;-5
2021/05/24 01:08:39;;;;;;;0.30;0.30;;;;;;;;;;5056328;28;20108;-5
2021/05/24 01:11:05;;;;;;;0.25;0.20;;;;;;;;;;5056196;28;20503;-5
2021/05/24 01:13:30;;;;;;;1.23;0.30;;;;;;;;;;5055743;28;20040;-6
2021/05/24 01:15:56;;;;;;;0.50;0.20;;;;;;;;;;5054633;28;20425;-7
2021/05/24 01:18:22;;;;;;;0.75;0.20;;;;;;;;;;5055882;28;20059;-5
2021/05/24 01:20:47;;;;;;;0.93;0.30;;;;;;;;;;5055754;28;20566;-6
2021/05/24 01:23:15;;;;;;;1.25;0.20;;;;;;;;;;5055817;28;20093;-6
2021/05/24 01:25:45;;;;;;;3.85;0.30;;;;;;;;;;5055604;28;20020;-5
2021/05/24 01:28:11;;;;;;;0.20;0.20;;;;;;;;;;5055584;28;20523;-6
2021/05/24 01:30:37;;;;;;;0.13;0.13;;;;;;;;;;5055866;28;20126;-5
2021/05/24 01:33:04;;;;;;;0.25;0.20;;;;;;;;;;5055799;28;20032;-6
2021/05/24 01:35:29;;;;;;;0.20;0.20;;;;;;;;;;5055416;28;20017;-5
2021/05/24 01:37:55;;;;;;;0.32;0.20;;;;;;;;;;5054284;28;20048;-4
2021/05/24 01:40:20;;;;;;;0.28;0.13;;;;;;;;;;5055441;28;20460;-6
2021/05/24 01:42:46;;;;;;;0.73;0.20;;;;;;;;;;5055636;28;20028;-5
2021/05/24 01:45:11;;;;;;;2.72;0.30;;;;;;;;;;5055493;28;20071;-5
2021/05/24 01:47:37;;;;;;;0.30;0.20;;;;;;;;;;5055268;28;20444;-7
2021/05/24 01:50:03;;;;;;;0.57;0.22;;;;;;;;;;5055528;28;20025;-8
2021/05/24 01:52:28;;;;;;;0.30;0.28;;;;;;;;;;5055295;28;20456;-6
2021/05/24 01:54:53;;;;;;;0.65;0.25;;;;;;;;;;5055175;28;20049;-7
2021/05/24 01:57:19;;;;;;;0.75;0.20;;;;;;;;;;5055017;28;20108;-7
2021/05/24 01:59:44;;;;;;;0.20;0.20;;;;;;;;;;5055066;28;20560;-6
2021/05/24 02:02:10;;;;;;;1.35;0.20;;;;;;;;;;5054888;28;20066;-7
2021/05/24 02:04:35;;;;;;;0.10;0.10;;;;;;;;;;5055120;28;20017;-5
2021/05/24 02:07:01;;;;;;;0.13;0.13;;;;;;;;;;5055183;28;20029;-5
2021/05/24 02:09:26;;;;;;;4.30;0.20;;;;;;;;;;5053522;28;20025;-5
2021/05/24 02:11:52;;;;;;;0.25;0.20;;;;;;;;;;5055138;28;20425;-5
2021/05/24 02:14:18;;;;;;;0.30;0.20;;;;;;;;;;5054653;28;20021;-5
2021/05/24 02:16:45;;;;;;;2.55;0.28;;;;;;;;;;5054630;28;20025;-5
2021/05/24 02:19:11;;;;;;;0.98;0.30;;;;;;;;;;5054521;28;20377;-5
2021/05/24 02:21:40;;;;;;;0.60;0.20;;;;;;;;;;5054582;28;20505;-5
2021/05/24 02:24:07;;;;;;;0.10;0.10;;;;;;;;;;5054770;28;20028;-5
2021/05/24 02:26:33;;;;;;;4.32;0.30;;;;;;;;;;5054419;28;20029;-5
2021/05/24 02:28:58;;;;;;;1.75;0.30;;;;;;;;;;5054485;28;20021;-5
2021/05/24 02:31:24;;;;;;;0.47;0.38;;;;;;;;;;5054289;28;20059;-6
2021/05/24 02:33:49;;;;;;;0.25;0.20;;;;;;;;;;5054590;28;20087;-6
2021/05/24 02:36:15;;;;;;;1.33;0.13;;;;;;;;;;5054613;28;20384;-5
2021/05/24 02:38:40;;;;;;;0.38;0.30;;;;;;;;;;5054078;28;20040;-5
2021/05/24 02:41:06;;;;;;;0.57;0.20;;;;;;;;;;5054324;28;20032;-5
2021/05/24 02:43:31;;;;;;;0.35;0.22;;;;;;;;;;5054187;28;20357;-5
2021/05/24 02:45:56;;;;;;;2.85;0.20;;;;;;;;;;5054118;28;20025;-5
2021/05/24 02:48:22;;;;;;;3.83;0.35;;;;;;;;;;5054131;28;20070;-5
2021/05/24 02:50:47;;;;;;;0.75;0.47;;;;;;;;;;5052760;28;20033;-5
2021/05/24 02:53:13;;;;;;;0.20;0.20;;;;;;;;;;5054075;28;20108;-6
2021/05/24 02:55:38;;;;;;;0.20;0.20;;;;;;;;;;5052668;28;20408;-5
2021/05/24 02:58:04;;;;;;;3.08;0.30;;;;;;;;;;5053924;28;20040;-6
2021/05/24 03:00:29;;;;;;;1.13;0.20;;;;;;;;;;5054031;28;20060;-5
2021/05/24 03:02:56;;;;;;;0.10;0.10;;;;;;;;;;5054045;28;20480;-6
2021/05/24 03:05:22;;;;;;;1.17;0.57;;;;;;;;;;5054007;28;20040;-6
2021/05/24 03:07:48;;;;;;;0.20;0.20;;;;;;;;;;5054024;28;20021;-4
2021/05/24 03:10:15;;;;;;;0.50;0.30;;;;;;;;;;5053929;28;20480;-6
2021/05/24 03:12:41;;;;;;;0.45;0.30;;;;;;;;;;5053908;28;20028;-5
2021/05/24 03:15:06;;;;;;;1.63;0.20;;;;;;;;;;5053494;28;20112;-6
2021/05/24 03:17:32;;;;;;;0.50;0.10;;;;;;;;;;5052775;28;20013;-5
2021/05/24 03:19:57;;;;;;;0.35;0.10;;;;;;;;;;5053843;28;20037;-5
2021/05/24 03:22:23;;;;;;;0.30;0.20;;;;;;;;;;5053598;28;20487;-5
2021/05/24 03:24:48;;;;;;;0.10;0.10;;;;;;;;;;5053691;28;20503;-6
2021/05/24 03:27:13;;;;;;;0.35;0.20;;;;;;;;;;5052016;28;20186;-5
2021/05/24 03:29:39;;;;;;;0.50;0.13;;;;;;;;;;5053561;28;20591;-4
2021/05/24 03:32:05;;;;;;;0.20;0.20;;;;;;;;;;5053310;28;20024;-6
2021/05/24 03:34:30;;;;;;;0.22;0.20;;;;;;;;;;5053142;28;20025;-6
2021/05/24 03:36:55;;;;;;;0.40;0.40;;;;;;;;;;5053134;28;20100;-4
2021/05/24 03:39:21;;;;;;;0.10;0.10;;;;;;;;;;5052963;28;20064;-3
2021/05/24 03:41:46;;;;;;;0.30;0.30;;;;;;;;;;5053344;28;20071;-5
2021/05/24 03:44:12;;;;;;;1.38;0.57;;;;;;;;;;5053231;28;20438;-5
2021/05/24 03:46:37;;;;;;;1.55;0.65;;;;;;;;;;5051757;28;20027;-5
2021/05/24 03:49:03;;;;;;;0.40;0.30;;;;;;;;;;5053258;28;20032;-5
2021/05/24 03:51:28;;;;;;;0.57;0.25;;;;;;;;;;5052926;28;20086;-5
2021/05/24 03:53:53;;;;;;;0.38;0.10;;;;;;;;;;5052834;28;20037;-5
2021/05/24 03:56:20;;;;;;;0.10;0.10;;;;;;;;;;5051348;28;20045;-5
2021/05/24 03:58:45;;;;;;;1.75;0.17;;;;;;;;;;5052754;28;20570;-5
2021/05/24 04:01:11;;;;;;;0.30;0.20;;;;;;;;;;5053006;28;20099;-5
2021/05/24 04:03:36;;;;;;;2.38;0.50;;;;;;;;;;5051282;28;20037;-7
2021/05/24 04:06:04;;;;;;;0.10;0.10;;;;;;;;;;5052721;28;20024;-5
2021/05/24 04:08:38;;;;;;;0.20;0.20;;;;;;;;;;5052859;28;20039;-5
2021/05/24 04:11:04;;;;;;;0.40;0.20;;;;;;;;;;5052900;28;20029;-6
2021/05/24 04:13:30;;;;;;;1.67;0.35;;;;;;;;;;5052730;28;20159;-6
2021/05/24 04:15:57;;;;;;;0.35;0.25;;;;;;;;;;5052553;28;20032;-6
2021/05/24 04:18:23;;;;;;;0.30;0.25;;;;;;;;;;5052314;28;20032;-4
2021/05/24 04:20:49;;;;;;;0.65;0.30;;;;;;;;;;5052729;28;20112;-6
2021/05/24 04:23:15;;;;;;;0.43;0.10;;;;;;;;;;5052297;28;20478;-6
2021/05/24 04:25:40;;;;;;;0.17;0.17;;;;;;;;;;5052358;28;20029;-6
2021/05/24 04:28:06;;;;;;;0.25;0.25;;;;;;;;;;5051483;28;20039;-5
2021/05/24 04:30:31;;;;;;;0.63;0.20;;;;;;;;;;5051375;28;20036;-6
2021/05/24 04:32:57;;;;;;;6.32;0.30;;;;;;;;;;5052204;28;20464;-5
2021/05/24 04:35:22;;;;;;;0.50;0.30;;;;;;;;;;5052288;28;20033;-6
2021/05/24 04:37:47;;;;;;;0.13;0.10;;;;;;;;;;5052488;28;20029;-5
2021/05/24 04:40:13;;;;;;;0.32;0.30;;;;;;;;;;5052355;28;20391;-5
2021/05/24 04:42:38;;;;;;;0.38;0.20;;;;;;;;;;5052479;28;20096;-4
2021/05/24 04:45:04;;;;;;;1.88;0.20;;;;;;;;;;5052223;28;20025;-6
2021/05/24 04:47:30;;;;;;;4.10;0.45;;;;;;;;;;5050810;28;20104;-7
2021/05/24 04:49:56;;;;;;;0.65;0.38;;;;;;;;;;5052159;28;20021;-4
2021/05/24 04:52:21;;;;;;;1.63;0.30;;;;;;;;;;5052287;28;20025;-5
2021/05/24 04:54:47;;;;;;;0.30;0.17;;;;;;;;;;5052064;28;20052;-6
2021/05/24 04:57:13;;;;;;;0.98;0.40;;;;;;;;;;5052338;28;20029;-5
2021/05/24 04:59:38;;;;;;;1.17;0.20;;;;;;;;;;5052267;28;20543;-5
2021/05/24 05:02:04;;;;;;;0.65;0.17;;;;;;;;;;5051931;28;20495;-4
2021/05/24 05:04:29;;;;;;;0.10;0.10;;;;;;;;;;5051838;28;20119;-3
2021/05/24 05:06:55;;;;;;;2.83;0.45;;;;;;;;;;5052301;28;20112;-5
2021/05/24 05:09:21;;;;;;;0.65;0.30;;;;;;;;;;5052146;28;20035;-5
2021/05/24 05:11:46;;;;;;;0.20;0.20;;;;;;;;;;5051956;28;20371;-5
2021/05/24 05:14:11;;;;;;;0.20;0.10;;;;;;;;;;5052108;28;20036;-5
2021/05/24 05:16:37;;;;;;;0.80;0.22;;;;;;;;;;5052080;28;20032;-6
2021/05/24 05:19:02;;;;;;;0.52;0.28;;;;;;;;;;5052147;28;20396;-6
2021/05/24 05:21:28;;;;;;;1.42;0.40;;;;;;;;;;5052015;28;20063;-6
2021/05/24 05:23:54;;;;;;;0.55;0.50;;;;;;;;;;5051856;28;20036;-6
2021/05/24 05:26:19;;;;;;;1.88;0.20;;;;;;;;;;5052005;28;20029;-5
2021/05/24 05:28:45;;;;;;;0.35;0.20;;;;;;;;;;5051746;28;20415;-5
2021/05/24 05:31:11;;;;;;;0.38;0.35;;;;;;;;;;5051835;28;20049;-6
2021/05/24 05:33:36;;;;;;;0.15;0.15;;;;;;;;;;5050544;28;20052;-6
2021/05/24 05:36:02;;;;;;;0.50;0.50;;;;;;;;;;5051647;28;20044;-5
2021/05/24 05:38:30;;;;;;;0.80;0.30;;;;;;;;;;5051555;28;20037;-5
2021/05/24 05:40:55;;;;;;;2.85;0.20;;;;;;;;;;5054514;28;20017;-6
2021/05/24 05:43:21;;;;;;;0.50;0.13;;;;;;;;;;5055275;28;20031;-4
2021/05/24 05:45:46;;;;;;;4.20;0.40;;;;;;;;;;5055332;28;20025;-5
2021/05/24 05:48:12;;;;;;;0.38;0.20;;;;;;;;;;5055188;28;20502;-5
2021/05/24 05:50:37;;;;;;;0.45;0.20;;;;;;;;;;5055517;28;20016;-4
2021/05/24 05:53:03;;;;;;;0.77;0.40;;;;;;;;;;5053972;28;20033;-5
2021/05/24 05:55:28;;;;;;;2.60;0.50;;;;;;;;;;5055022;28;20380;-4
2021/05/24 05:57:53;;;;;;;0.88;0.25;;;;;;;;;;5053751;28;20036;-4
2021/05/24 06:00:19;;;;;;;0.85;0.20;;;;;;;;;;5054935;28;20028;-3
2021/05/24 06:02:44;;;;;;;0.20;0.20;;;;;;;;;;5054986;28;20036;-4
2021/05/24 06:05:12;;;;;;;0.60;0.30;;;;;;;;;;5054925;28;20099;-4
2021/05/24 06:07:37;;;;;;;0.30;0.30;;;;;;;;;;5055016;28;20033;-3
2021/05/24 06:10:03;;;;;;;1.55;0.30;;;;;;;;;;5055206;28;20028;-5
2021/05/24 06:12:29;;;;;;;0.45;0.30;;;;;;;;;;5054661;28;20056;-4
2021/05/24 06:14:57;;;;;;;0.20;0.20;;;;;;;;;;5054891;28;20035;-6
2021/05/24 06:17:22;;;;;;;0.30;0.30;;;;;;;;;;5054919;28;20040;-6
2021/05/24 06:19:47;;;;;;;0.57;0.22;;;;;;;;;;5054812;28;20025;-4
2021/05/24 06:22:13;;;;;;;0.85;0.30;;;;;;;;;;5054821;28;20025;-5
2021/05/24 06:24:38;;;;;;;0.40;0.25;;;;;;;;;;5054918;28;20103;-5
2021/05/24 06:27:03;;;;;;;0.10;0.10;;;;;;;;;;5054503;28;20403;-5
2021/05/24 06:29:31;;;;;;;0.70;0.40;;;;;;;;;;5054452;28;20031;-5
2021/05/24 06:31:56;;;;;;;0.32;0.30;;;;;;;;;;5054677;28;20029;-5
2021/05/24 06:34:22;;;;;;;3.03;0.20;;;;;;;;;;5054383;28;20116;-6
2021/05/24 06:36:47;;;;;;;2.33;0.30;;;;;;;;;;5053094;28;20056;-4
2021/05/24 06:39:13;;;;;;;1.00;0.20;;;;;;;;;;5053021;28;20071;-5
2021/05/24 06:41:38;;;;;;;0.80;0.40;;;;;;;;;;5054093;28;20041;-6
2021/05/24 06:44:04;;;;;;;1.20;0.30;;;;;;;;;;5054278;28;20211;-4
2021/05/24 06:46:29;;;;;;;0.22;0.22;;;;;;;;;;5054071;28;20025;-6
2021/05/24 06:48:55;;;;;;;0.20;0.20;;;;;;;;;;5054423;28;20032;-5
2021/05/24 06:51:20;;;;;;;0.20;0.20;;;;;;;;;;5053301;28;20529;-7
2021/05/24 06:53:46;;;;;;;0.40;0.30;;;;;;;;;;5054270;28;20479;-6
2021/05/24 06:56:11;;;;;;;2.10;0.73;;;;;;;;;;5053803;28;20084;-5
2021/05/24 06:58:37;;;;;;;0.30;0.30;;;;;;;;;;5053863;28;20045;-6
2021/05/24 07:01:03;;;;;;;0.20;0.20;;;;;;;;;;5054199;28;20164;-4
2021/05/24 07:03:28;;;;;;;1.55;0.20;;;;;;;;;;5053736;28;20501;-6
2021/05/24 07:05:54;;;;;;;0.20;0.20;;;;;;;;;;5053743;28;20033;-6
2021/05/24 07:08:19;;;;;;;0.45;0.30;;;;;;;;;;5053698;28;20036;-6
2021/05/24 07:10:45;;;;;;;0.30;0.30;;;;;;;;;;5053712;28;20120;-5
2021/05/24 07:13:11;;;;;;;0.47;0.20;;;;;;;;;;5053660;28;20497;-4
2021/05/24 07:15:36;;;;;;;0.38;0.20;;;;;;;;;;5053371;28;20021;-5
2021/05/24 07:18:02;;;;;;;0.20;0.15;;;;;;;;;;5053583;28;20086;-4
2021/05/24 07:20:27;;;;;;;1.30;0.20;;;;;;;;;;5053517;28;20053;-5
2021/05/24 07:22:52;;;;;;;0.20;0.20;;;;;;;;;;5053366;28;20017;-5
2021/05/24 07:25:18;;;;;;;1.10;0.30;;;;;;;;;;5053431;28;20116;-5
2021/05/24 07:27:44;;;;;;;0.32;0.30;;;;;;;;;;5053650;28;20139;-4
2021/05/24 07:30:09;;;;;;;0.60;0.20;;;;;;;;;;5053630;28;20025;-5
2021/05/24 07:32:35;;;;;;;0.17;0.15;;;;;;;;;;5053455;28;20447;-5
2021/05/24 07:35:00;;;;;;;0.30;0.13;;;;;;;;;;5053271;28;20383;-6
2021/05/24 07:37:25;;;;;;;0.20;0.20;;;;;;;;;;5053366;28;20063;-5
2021/05/24 07:39:51;;;;;;;0.70;0.35;;;;;;;;;;5053104;28;20493;-5
2021/05/24 07:42:16;;;;;;;0.82;0.57;;;;;;;;;;5053053;28;20104;-4
2021/05/24 07:44:42;;;;;;;0.20;0.20;;;;;;;;;;5053085;28;20037;-5
2021/05/24 07:47:07;;;;;;;0.50;0.28;;;;;;;;;;5053036;28;20122;-5
2021/05/24 07:49:33;;;;;;;0.60;0.30;;;;;;;;;;5053008;28;20082;-6
2021/05/24 07:51:58;;;;;;;0.63;0.30;;;;;;;;;;5052805;28;20021;-5
2021/05/24 07:54:24;;;;;;;1.20;0.40;;;;;;;;;;5052627;28;20053;-4
2021/05/24 07:56:49;;;;;;;1.10;0.40;;;;;;;;;;5052885;28;20074;-5
2021/05/24 07:59:15;;;;;;;0.40;0.30;;;;;;;;;;5052660;28;20056;-5
2021/05/24 08:01:41;;;;;;;1.45;0.28;;;;;;;;;;5052767;28;20496;-5
2021/05/24 08:04:06;;;;;;;1.80;0.40;;;;;;;;;;5052457;28;20027;-5
2021/05/24 08:06:32;;;;;;;3.53;0.68;;;;;;;;;;5052583;28;20017;-4
2021/05/24 08:08:57;;;;;;;0.50;0.30;;;;;;;;;;5052732;28;20048;-6
2021/05/24 08:11:23;;;;;;;5.50;0.47;;;;;;;;;;5051236;28;20023;-5
2021/05/24 08:13:50;;;;;;;1.85;0.47;;;;;;;;;;5052861;28;20032;-5
2021/05/24 08:16:15;;;;;;;2.65;0.25;;;;;;;;;;5052436;28;20024;-4
2021/05/24 08:18:41;;;;;;;0.22;0.20;;;;;;;;;;5052468;28;20045;-6
2021/05/24 08:21:07;;;;;;;0.20;0.20;;;;;;;;;;5052776;28;20024;-5
2021/05/24 08:23:33;;;;;;;0.63;0.30;;;;;;;;;;5052352;28;20036;-5
2021/05/24 08:25:59;;;;;;;0.35;0.30;;;;;;;;;;5052738;28;20147;-5
2021/05/24 08:28:24;;;;;;;1.05;0.30;;;;;;;;;;5052216;28;20491;-6
2021/05/24 08:30:50;;;;;;;1.65;0.20;;;;;;;;;;5052689;28;20021;-6
2021/05/24 08:33:15;;;;;;;0.30;0.20;;;;;;;;;;5052299;28;20471;-5
2021/05/24 08:35:40;;;;;;;0.20;0.20;;;;;;;;;;5052313;28;20013;-5
2021/05/24 08:38:06;;;;;;;0.43;0.15;;;;;;;;;;5052166;28;20045;-5
2021/05/24 08:40:31;;;;;;;0.93;0.20;;;;;;;;;;5052495;28;20096;-5
2021/05/24 08:42:58;;;;;;;0.55;0.20;;;;;;;;;;5052137;28;20539;-4
2021/05/24 08:45:28;;;;;;;0.90;0.28;;;;;;;;;;5052200;28;20380;-4
2021/05/24 08:47:53;;;;;;;0.25;0.20;;;;;;;;;;5052428;28;20428;-5
2021/05/24 08:50:19;;;;;;;0.52;0.30;;;;;;;;;;5052355;28;20055;-5
2021/05/24 08:52:44;;;;;;;0.65;0.43;;;;;;;;;;5052281;28;20036;-5
2021/05/24 08:55:11;;;;;;;1.05;0.25;;;;;;;;;;5052062;28;20037;-4
2021/05/24 08:57:37;;;;;;;1.00;0.28;;;;;;;;;;5052275;28;20025;-5
2021/05/24 09:00:04;;;;;;;0.17;0.17;;;;;;;;;;5050898;28;20037;-5
2021/05/24 09:02:29;;;;;;;0.43;0.35;;;;;;;;;;5051832;28;20037;-5
2021/05/24 09:04:54;;;;;;;0.30;0.20;;;;;;;;;;5052301;28;20036;-5
2021/05/24 09:07:20;;;;;;;0.40;0.20;;;;;;;;;;5051989;28;20036;-5
2021/05/24 09:09:59;;;;;;;0.93;0.32;;;;;;;;;;5052008;28;20479;-4
2021/05/24 09:12:30;;;;;;;0.20;0.20;;;;;;;;;;5051838;28;20083;-4
2021/05/24 09:14:57;;;;;;;0.20;0.20;;;;;;;;;;5053336;28;20036;-4
2021/05/24 09:17:23;;;;;;;0.35;0.22;;;;;;;;;;5055695;28;20111;-5
2021/05/24 09:19:48;;;;;;;1.10;0.25;;;;;;;;;;5055773;28;20124;-5
2021/05/24 09:22:13;;;;;;;0.80;0.30;;;;;;;;;;5054507;28;20021;-5
2021/05/24 09:24:39;;;;;;;0.10;0.10;;;;;;;;;;5055845;28;20036;-5
2021/05/24 09:27:05;;;;;;;0.10;0.10;;;;;;;;;;5056041;28;20095;-6
2021/05/24 09:29:42;;;;;;;0.35;0.30;;;;;;;;;;5055580;28;20731;-4
2021/05/24 09:32:10;;;;;;;0.10;0.10;;;;;;;;;;5055516;28;20044;-6
2021/05/24 09:34:36;;;;;;;0.35;0.25;;;;;;;;;;5055788;28;20112;-5
2021/05/24 09:37:02;;;;;;;0.32;0.15;;;;;;;;;;5055587;28;20155;-4
2021/05/24 09:39:32;;;;;;;0.30;0.30;;;;;;;;;;5055548;28;20040;-5
2021/05/24 09:42:00;;;;;;;0.32;0.20;;;;;;;;;;5055603;28;20028;-4
2021/05/24 09:44:27;;;;;;;0.20;0.20;;;;;;;;;;5055568;28;20025;-5
2021/05/24 09:46:52;;;;;;;0.20;0.20;;;;;;;;;;5055383;28;20025;-5
2021/05/24 09:49:21;;;;;;;1.85;0.20;;;;;;;;;;5055501;28;20372;-5
2021/05/24 09:51:47;;;;;;;0.17;0.10;;;;;;;;;;5055229;28;20036;-5
2021/05/24 09:54:13;;;;;;;0.15;0.15;;;;;;;;;;5054930;28;20047;-6
2021/05/24 09:56:40;;;;;;;0.20;0.20;;;;;;;;;;5055140;28;20035;-4
2021/05/24 09:59:10;;;;;;;0.10;0.10;;;;;;;;;;5053746;28;20068;-5
2021/05/24 10:01:39;;;;;;;0.20;0.20;;;;;;;;;;5054957;28;20082;-6
2021/05/24 10:04:05;;;;;;;0.22;0.20;;;;;;;;;;5055308;28;20383;-5
2021/05/24 10:06:31;;;;;;;0.30;0.25;;;;;;;;;;5055079;28;20032;-5
2021/05/24 10:08:57;;;;;;;0.10;0.10;;;;;;;;;;5054972;28;20023;-5
2021/05/24 10:11:24;;;;;;;0.22;0.10;;;;;;;;;;5054794;28;20028;-4
2021/05/24 10:13:49;;;;;;;0.10;0.10;;;;;;;;;;5054835;28;20074;-6
2021/05/24 10:16:15;;;;;;;0.10;0.10;;;;;;;;;;5054778;28;20120;-5
2021/05/24 10:18:41;;;;;;;0.10;0.10;;;;;;;;;;5054627;28;20114;-5
2021/05/24 10:21:07;;;;;;;0.10;0.10;;;;;;;;;;5054703;28;20025;-5
2021/05/24 10:23:32;;;;;;;0.10;0.10;;;;;;;;;;5054826;28;20031;-5
2021/05/24 10:26:00;;;;;;;0.20;0.20;;;;;;;;;;5053232;28;20033;-6
2021/05/24 10:28:29;;;;;;;0.30;0.20;;;;;;;;;;5054451;28;20029;-6
2021/05/24 10:30:56;;;;;;;0.10;0.10;;;;;;;;;;5053220;28;20043;-4
2021/05/24 10:33:26;;;;;;;0.30;0.10;;;;;;;;;;5053129;28;20028;-5
2021/05/24 10:35:52;;;;;;;0.68;0.30;;;;;;;;;;5054362;28;20024;-5
2021/05/24 10:38:33;;;;;;;1.45;0.20;;;;;;;;;;5054526;28;20033;-5
2021/05/24 10:41:02;;;;;;;1.15;0.30;;;;;;;;;;5054525;28;20033;-6
2021/05/24 10:43:54;;;;;;;0.20;0.20;;;;;;;;;;5054451;28;20028;-4
2021/05/24 10:46:26;;;;;;;0.28;0.20;;;;;;;;;;5053088;28;20461;-5
2021/05/24 10:49:05;;;;;;;0.52;0.20;;;;;;;;;;5054444;28;20060;-5
2021/05/24 10:51:51;;;;;;;0.45;0.20;;;;;;;;;;5054311;28;20114;-4
2021/05/24 10:54:19;;;;;;;0.88;0.22;;;;;;;;;;5053481;28;20045;-5
2021/05/24 10:56:45;;;;;;;2.40;1.20;;;;;;;;;;5054038;28;20039;-5
2021/05/24 10:59:30;;;;;;;0.17;0.17;;;;;;;;;;5054217;28;20040;-5
2021/05/24 11:01:59;;;;;;;0.20;0.20;;;;;;;;;;5053949;28;20496;-5
2021/05/24 11:04:43;;;;;;;0.50;0.20;;;;;;;;;;5053781;28;20031;-5
2021/05/24 11:07:28;;;;;;;1.17;0.30;;;;;;;;;;5053867;28;20056;-5
2021/05/24 11:10:13;;;;;;;0.50;0.20;;;;;;;;;;5053921;28;20159;-7
2021/05/24 11:12:40;;;;;;;2.17;0.30;;;;;;;;;;5053516;28;20421;-6
2021/05/24 11:15:08;;;;;;;0.28;0.17;;;;;;;;;;5054015;28;20028;-7
2021/05/24 11:17:52;;;;;;;0.38;0.20;;;;;;;;;;5053470;28;20025;-6
2021/05/24 11:20:36;;;;;;;1.00;0.30;;;;;;;;;;5053496;28;20033;-4
2021/05/24 11:28:40;;;;;;;1.40;0.40;;;;;;;;;;5052769;28;20037;-7
2021/05/24 11:31:09;;;;;;;0.90;0.30;;;;;;;;;;5051739;28;20372;-5
2021/05/24 11:33:39;;;;;;;0.43;0.30;;;;;;;;;;5053516;28;20029;-5
2021/05/24 11:36:05;;;;;;;0.28;0.20;;;;;;;;;;5052044;28;20028;-5
2021/05/24 11:38:31;;;;;;;0.55;0.30;;;;;;;;;;5051084;28;20492;-6
2021/05/24 11:41:16;;;;;;;1.00;0.20;;;;;;;;;;5053019;28;20024;-5
2021/05/24 11:43:43;;;;;;;0.22;0.22;;;;;;;;;;5053095;28;20119;-6
2021/05/24 11:46:09;;;;;;;0.82;0.32;;;;;;;;;;5052767;28;20114;-5
2021/05/24 11:48:38;;;;;;;0.80;0.35;;;;;;;;;;5052910;28;20025;-6
2021/05/24 11:51:05;;;;;;;0.75;0.32;;;;;;;;;;5052971;28;20079;-5
2021/05/24 11:53:31;;;;;;;0.20;0.20;;;;;;;;;;5052880;28;20029;-7
2021/05/24 11:56:12;;;;;;;0.45;0.25;;;;;;;;;;5052829;28;20041;-6
2021/05/24 11:58:56;;;;;;;0.10;0.10;;;;;;;;;;5053058;28;20037;-6
2021/05/24 12:01:22;;;;;;;0.20;0.20;;;;;;;;;;5053049;28;20387;-6
2021/05/24 12:03:47;;;;;;;0.20;0.20;;;;;;;;;;5052915;28;20021;-6
2021/05/24 12:06:13;;;;;;;2.70;0.28;;;;;;;;;;5051480;28;20029;-6
2021/05/24 12:08:41;;;;;;;0.30;0.30;;;;;;;;;;5052585;28;20036;-6
2021/05/24 12:11:08;;;;;;;0.85;0.40;;;;;;;;;;5052867;28;20025;-6
2021/05/24 12:13:52;;;;;;;0.30;0.25;;;;;;;;;;5052443;28;20029;-7
2021/05/24 12:16:18;;;;;;;1.35;0.40;;;;;;;;;;5052036;28;20151;-5
2021/05/24 12:18:53;;;;;;;0.20;0.20;;;;;;;;;;5052260;28;20116;-6
2021/05/24 12:21:31;;;;;;;1.40;0.52;;;;;;;;;;5052408;28;20392;-5
2021/05/24 12:23:57;;;;;;;0.57;0.20;;;;;;;;;;5052755;28;20107;-7
2021/05/24 12:26:23;;;;;;;1.00;0.30;;;;;;;;;;5052369;28;20538;-6
2021/05/24 12:28:48;;;;;;;1.25;0.28;;;;;;;;;;5052363;28;20159;-6
2021/05/24 12:31:14;;;;;;;0.88;0.68;;;;;;;;;;5052571;28;20044;-5
2021/05/24 12:33:43;;;;;;;2.33;0.22;;;;;;;;;;5052359;28;20029;-6
2021/05/24 12:36:09;;;;;;;0.28;0.22;;;;;;;;;;5052542;28;20028;-6
2021/05/24 12:38:43;;;;;;;1.38;0.75;;;;;;;;;;5052146;28;20391;-6
2021/05/24 12:41:09;;;;;;;1.17;0.28;;;;;;;;;;5052193;28;20112;-6
2021/05/24 12:43:46;;;;;;;0.10;0.10;;;;;;;;;;5052144;28;20033;-6
2021/05/24 12:46:13;;;;;;;0.55;0.40;;;;;;;;;;5052209;28;20511;-4
2021/05/24 12:48:39;;;;;;;0.20;0.10;;;;;;;;;;5052215;28;20025;-6
2021/05/24 12:51:12;;;;;;;0.60;0.30;;;;;;;;;;5055461;28;20033;-5
2021/05/24 12:53:37;;;;;;;0.63;0.25;;;;;;;;;;5056626;28;20116;-7
2021/05/24 12:56:07;;;;;;;0.65;0.20;;;;;;;;;;5056110;28;20083;-6
2021/05/24 12:58:37;;;;;;;0.20;0.20;;;;;;;;;;5056336;28;20041;-5
2021/05/24 13:01:02;;;;;;;0.65;0.20;;;;;;;;;;5056253;28;20021;-5
2021/05/24 13:03:52;;;;;;;2.30;0.20;;;;;;;;;;5056109;28;20116;-5
2021/05/24 13:06:18;;;;;;;1.17;0.43;;;;;;;;;;5056026;28;20036;-4
2021/05/24 13:09:03;;;;;;;0.20;0.20;;;;;;;;;;5056475;28;20025;-6
2021/05/24 13:11:49;;;;;;;1.13;0.30;;;;;;;;;;5056135;28;20033;-6
2021/05/24 13:14:24;;;;;;;0.40;0.20;;;;;;;;;;5052200;28;20048;-5
2021/05/24 13:17:08;;;;;;;0.20;0.13;;;;;;;;;;5056262;28;20074;-6
2021/05/24 13:30:07;;;;;;;0.32;0.30;;;;;;;;;;5055749;28;20053;-6
2021/05/24 13:32:33;;;;;;;0.80;0.40;;;;;;;;;;5055800;28;20498;-5
2021/05/24 13:34:59;;;;;;;0.30;0.30;;;;;;;;;;5055377;28;20049;-5
2021/05/24 13:37:25;;;;;;;0.20;0.20;;;;;;;;;;5054106;28;20090;-6
2021/05/24 13:40:01;;;;;;;0.43;0.30;;;;;;;;;;5054122;28;20483;-5
2021/05/24 13:42:26;;;;;;;0.20;0.10;;;;;;;;;;5055351;28;20037;-6
2021/05/24 13:44:52;;;;;;;0.30;0.30;;;;;;;;;;5055524;28;20412;-4
2021/05/24 13:47:21;;;;;;;0.57;0.30;;;;;;;;;;5055292;28;20072;-6
2021/05/24 13:49:46;;;;;;;0.55;0.38;;;;;;;;;;5055374;28;20414;-5
2021/05/24 13:52:12;;;;;;;1.40;0.40;;;;;;;;;;5055258;28;20036;-6
2021/05/24 13:54:37;;;;;;;0.45;0.30;;;;;;;;;;5053661;28;20037;-6
2021/05/24 13:57:02;;;;;;;0.28;0.28;;;;;;;;;;5054019;28;20037;-5
2021/05/24 13:59:28;;;;;;;0.47;0.32;;;;;;;;;;5055245;28;20051;-6
2021/05/24 14:01:54;;;;;;;3.00;0.50;;;;;;;;;;5054867;28;20033;-7
2021/05/24 14:04:19;;;;;;;0.75;0.30;;;;;;;;;;5055243;28;20357;-6
2021/05/24 14:06:46;;;;;;;2.92;0.47;;;;;;;;;;5055078;28;20442;-5
2021/05/24 14:09:12;;;;;;;0.60;0.40;;;;;;;;;;5054952;28;20024;-6
2021/05/24 14:11:37;;;;;;;0.95;0.28;;;;;;;;;;5055043;28;20029;-6
2021/05/24 14:14:03;;;;;;;2.20;0.35;;;;;;;;;;5054952;28;20049;-6
2021/05/24 14:16:28;;;;;;;0.10;0.10;;;;;;;;;;5054806;28;20130;-4
2021/05/24 14:18:53;;;;;;;0.10;0.10;;;;;;;;;;5054964;28;20487;-5
2021/05/24 14:21:21;;;;;;;0.73;0.32;;;;;;;;;;5054640;28;20131;-5
2021/05/24 14:23:46;;;;;;;0.40;0.40;;;;;;;;;;5054666;28;20094;-6
2021/05/24 14:26:12;;;;;;;1.50;0.47;;;;;;;;;;5054957;28;20064;-5
2021/05/24 14:28:38;;;;;;;1.00;0.60;;;;;;;;;;5053051;28;20415;-4
2021/05/24 14:31:08;;;;;;;0.38;0.30;;;;;;;;;;5053860;28;20108;-6
2021/05/24 14:33:33;;;;;;;0.57;0.40;;;;;;;;;;5054775;28;20037;-5
2021/05/24 14:35:59;;;;;;;0.32;0.30;;;;;;;;;;5054434;28;20029;-6
2021/05/24 14:38:25;;;;;;;0.95;0.32;;;;;;;;;;5054224;28;20029;-5
2021/05/24 14:40:51;;;;;;;0.40;0.40;;;;;;;;;;5054343;28;20021;-4
2021/05/24 14:43:16;;;;;;;0.25;0.22;;;;;;;;;;5053113;28;20091;-6
2021/05/24 14:45:41;;;;;;;0.40;0.40;;;;;;;;;;5053938;28;20029;-6
2021/05/24 14:48:07;;;;;;;0.55;0.17;;;;;;;;;;5053266;28;20017;-6
2021/05/24 14:50:34;;;;;;;0.30;0.30;;;;;;;;;;5053168;28;20087;-7
2021/05/24 14:53:02;;;;;;;0.77;0.60;;;;;;;;;;5054143;28;20048;-5
2021/05/24 14:55:30;;;;;;;0.20;0.20;;;;;;;;;;5052577;28;20041;-5
2021/05/24 14:57:56;;;;;;;0.20;0.20;;;;;;;;;;5054281;28;20037;-5
2021/05/24 15:00:21;;;;;;;0.50;0.50;;;;;;;;;;5054245;28;20033;-5
2021/05/24 15:02:46;;;;;;;1.15;0.20;;;;;;;;;;5053888;28;20016;-4
2021/05/24 15:05:12;;;;;;;0.45;0.30;;;;;;;;;;5053907;28;20033;-5
2021/05/24 15:07:37;;;;;;;0.47;0.25;;;;;;;;;;5053633;28;20024;-5
2021/05/24 15:10:04;;;;;;;0.22;0.22;;;;;;;;;;5054082;28;20372;-7
2021/05/24 15:12:29;;;;;;;0.65;0.32;;;;;;;;;;5051407;28;20027;-6